Time;durP1;ratioP1;P1;durP2;ratioP2;P2;SDS_P1;SDS_P2;PMS_P1;PMS_P2;Temp;Humidity;BMP_temperature;BMP_pressure;BME280_temperature;BME280_humidity;BME280_pressure;Samples;Min_cycle;Max_cycle;Signal;HPM_P1;HPM_P2
2023/03/12 00:03:24;;;;;;;7.27;4.70;;;;;3.90;100522.00;;;;9723390;30;20578;-80
2023/03/12 00:08:26;;;;;;;9.53;5.10;;;;;3.90;100514.00;;;;9736389;30;20207;-79
2023/03/12 00:13:28;;;;;;;10.90;5.00;;;;;3.90;100488.00;;;;9721682;30;20622;-81
2023/03/12 00:18:30;;;;;;;8.10;4.43;;;;;3.90;100497.00;;;;9719556;30;20206;-80
2023/03/12 00:23:32;;;;;;;10.00;4.70;;;;;4.00;100489.00;;;;9735722;30;20202;-80
2023/03/12 00:28:35;;;;;;;11.20;4.87;;;;;4.10;100488.00;;;;9735092;30;20225;-79
2023/03/12 00:33:37;;;;;;;9.87;4.97;;;;;4.10;100476.00;;;;9728435;30;20211;-80
2023/03/12 00:38:39;;;;;;;8.20;4.20;;;;;4.10;100477.00;;;;9717247;30;20203;-81
2023/03/12 00:43:41;;;;;;;15.90;7.33;;;;;4.10;100474.00;;;;9749041;30;20245;-80
2023/03/12 00:48:44;;;;;;;12.43;6.00;;;;;4.10;100470.00;;;;9735276;30;20207;-80
2023/03/12 00:53:46;;;;;;;14.13;5.87;;;;;4.00;100466.00;;;;9735757;30;20253;-81
2023/03/12 00:58:48;;;;;;;11.00;5.50;;;;;4.00;100465.00;;;;9749288;30;20262;-80
2023/03/12 01:03:50;;;;;;;8.43;4.53;;;;;3.90;100467.00;;;;9697308;30;20195;-80
2023/03/12 01:08:54;;;;;;;8.17;4.97;;;;;3.90;100462.00;;;;9735414;30;20206;-81
2023/03/12 01:13:56;;;;;;;10.67;5.13;;;;;4.00;100461.00;;;;9758340;30;20204;-80
2023/03/12 01:19:00;;;;;;;7.10;4.47;;;;;4.00;100455.00;;;;9713202;30;20211;-80
2023/03/12 01:24:02;;;;;;;10.07;4.63;;;;;4.00;100460.00;;;;9731113;30;20214;-79
2023/03/12 01:29:04;;;;;;;11.23;4.23;;;;;4.00;100455.00;;;;9685174;30;20215;-80
2023/03/12 01:34:06;;;;;;;12.60;4.20;;;;;4.00;100445.00;;;;9697851;30;20250;-80
2023/03/12 01:39:08;;;;;;;5.70;3.50;;;;;4.00;100442.00;;;;9732032;30;20203;-80
2023/03/12 01:44:13;;;;;;;6.50;3.77;;;;;4.00;100432.00;;;;9749711;30;20257;-79
2023/03/12 01:49:32;;;;;;;5.43;3.23;;;;;4.00;100427.00;;;;9783055;30;20761;-79
2023/03/12 01:54:46;;;;;;;8.63;3.83;;;;;3.90;100428.00;;;;9740521;30;20686;-81
2023/03/12 01:59:52;;;;;;;8.13;2.60;;;;;3.90;100420.00;;;;9701529;30;20203;-80
2023/03/12 02:05:06;;;;;;;4.43;2.80;;;;;3.90;100414.00;;;;9732695;30;20203;-81
2023/03/12 02:10:09;;;;;;;5.83;2.87;;;;;3.90;100411.00;;;;9756109;30;20885;-81
2023/03/12 02:15:11;;;;;;;6.70;3.10;;;;;3.90;100401.00;;;;9734986;30;20626;-81
2023/03/12 02:20:26;;;;;;;3.63;2.30;;;;;3.80;100388.00;;;;9731712;30;20234;-80
2023/03/12 02:25:50;;;;;;;5.07;2.10;;;;;3.80;100383.00;;;;9717278;30;20633;-80
2023/03/12 02:30:57;;;;;;;7.40;2.33;;;;;3.80;100372.00;;;;9708917;30;20262;-80
2023/03/12 02:35:59;;;;;;;4.20;2.30;;;;;3.70;100360.00;;;;9709059;30;20661;-80
2023/03/12 02:41:29;;;;;;;5.73;2.60;;;;;3.80;100361.00;;;;9735673;30;20702;-80
2023/03/12 02:46:39;;;;;;;7.23;2.80;;;;;3.80;100359.00;;;;9728496;30;20242;-80
2023/03/12 02:51:43;;;;;;;5.97;2.40;;;;;3.80;100343.00;;;;9716631;30;20258;-80
2023/03/12 02:56:46;;;;;;;5.70;2.63;;;;;3.80;100347.00;;;;9693920;30;20222;-79
2023/03/12 03:01:53;;;;;;;4.93;2.63;;;;;3.80;100363.00;;;;9695086;30;20285;-81
2023/03/12 03:06:56;;;;;;;5.50;2.63;;;;;3.80;100359.00;;;;9670114;30;20203;-80
2023/03/12 03:11:58;;;;;;;5.00;2.50;;;;;3.80;100359.00;;;;9683188;30;20314;-80
2023/03/12 03:17:03;;;;;;;5.33;2.77;;;;;3.80;100353.00;;;;9748784;30;20225;-80
2023/03/12 03:22:06;;;;;;;7.47;2.93;;;;;3.90;100352.00;;;;9759544;30;20212;-80
2023/03/12 03:27:09;;;;;;;10.23;3.23;;;;;3.90;100344.00;;;;9746082;30;20657;-80
2023/03/12 03:32:11;;;;;;;5.00;2.67;;;;;3.90;100338.00;;;;9737822;30;20232;-81
2023/03/12 03:37:13;;;;;;;5.73;3.17;;;;;3.90;100330.00;;;;9705204;30;20236;-80
2023/03/12 03:42:15;;;;;;;6.87;3.17;;;;;3.80;100321.00;;;;9765583;30;20226;-81
2023/03/12 03:47:18;;;;;;;6.17;2.77;;;;;3.90;100316.00;;;;9751666;30;20891;-81
2023/03/12 03:52:20;;;;;;;7.03;3.10;;;;;3.90;100316.00;;;;9736339;30;20292;-80
2023/03/12 03:57:23;;;;;;;6.20;2.87;;;;;3.90;100331.00;;;;9735977;30;20246;-81
2023/03/12 04:02:26;;;;;;;6.13;2.63;;;;;3.90;100326.00;;;;9734794;30;20283;-80
2023/03/12 04:07:29;;;;;;;6.30;3.37;;;;;3.90;100335.00;;;;9736594;30;20199;-80
2023/03/12 04:12:31;;;;;;;9.37;3.03;;;;;4.00;100326.00;;;;9723127;30;20215;-80
2023/03/12 04:17:33;;;;;;;4.67;2.43;;;;;4.00;100317.00;;;;9737290;30;20210;-79
2023/03/12 04:22:36;;;;;;;7.63;2.73;;;;;4.00;100338.00;;;;9750759;30;20241;-79
2023/03/12 04:27:39;;;;;;;4.87;2.70;;;;;4.10;100326.00;;;;9721992;30;20245;-79
2023/03/12 04:32:41;;;;;;;9.40;3.13;;;;;4.10;100319.00;;;;9765534;30;20214;-81
2023/03/12 04:37:44;;;;;;;5.97;3.07;;;;;4.10;100317.00;;;;9736205;30;20583;-80
2023/03/12 04:42:46;;;;;;;5.93;2.83;;;;;4.10;100297.00;;;;9728785;30;20233;-80
2023/03/12 04:47:49;;;;;;;7.47;2.83;;;;;4.10;100287.00;;;;9718107;30;20210;-81
2023/03/12 04:52:51;;;;;;;7.07;3.43;;;;;4.10;100279.00;;;;9763376;30;20195;-80
2023/03/12 04:57:53;;;;;;;4.77;2.90;;;;;4.10;100284.00;;;;9735941;30;20237;-79
2023/03/12 05:02:58;;;;;;;10.93;3.70;;;;;4.20;100275.00;;;;9734791;30;20936;-81
2023/03/12 05:08:00;;;;;;;7.70;3.17;;;;;4.20;100282.00;;;;9749510;30;20249;-81
2023/03/12 05:13:03;;;;;;;6.77;3.50;;;;;4.30;100278.00;;;;9727236;30;20698;-81
2023/03/12 05:18:05;;;;;;;6.67;4.10;;;;;4.30;100265.00;;;;9733878;30;20729;-80
2023/03/12 05:23:07;;;;;;;11.57;4.67;;;;;4.30;100262.00;;;;9757227;30;20275;-81
2023/03/12 05:28:09;;;;;;;4.33;3.60;;;;;4.40;100269.00;;;;9721194;30;20214;-81
2023/03/12 05:33:12;;;;;;;8.70;3.97;;;;;4.40;100282.00;;;;9722069;30;20429;-80
2023/03/12 05:38:14;;;;;;;8.17;4.80;;;;;4.50;100291.00;;;;9734749;30;20678;-79
2023/03/12 05:43:17;;;;;;;7.33;4.77;;;;;4.50;100279.00;;;;9719983;30;20715;-81
2023/03/12 05:48:19;;;;;;;13.07;5.77;;;;;4.60;100287.00;;;;9749738;30;20194;-80
2023/03/12 05:53:23;;;;;;;8.07;5.23;;;;;4.60;100281.00;;;;9748917;30;20294;-80
2023/03/12 05:58:27;;;;;;;11.53;5.97;;;;;4.70;100275.00;;;;9720078;30;20281;-81
2023/03/12 06:03:29;;;;;;;9.30;6.73;;;;;4.80;100269.00;;;;9719996;30;20194;-81
2023/03/12 06:08:32;;;;;;;10.50;6.20;;;;;4.80;100273.00;;;;9716852;30;20213;-81
2023/03/12 06:13:34;;;;;;;9.07;6.03;;;;;4.90;100274.00;;;;9725234;30;20274;-81
2023/03/12 06:18:37;;;;;;;12.77;7.47;;;;;4.90;100262.00;;;;9720042;30;20209;-81
2023/03/12 06:23:40;;;;;;;9.73;7.37;;;;;5.00;100254.00;;;;9747756;30;20202;-80
2023/03/12 06:28:46;;;;;;;10.23;7.37;;;;;5.10;100259.00;;;;9733335;30;20202;-81
2023/03/12 06:33:48;;;;;;;13.13;7.80;;;;;5.20;100269.00;;;;9719314;30;20201;-81
2023/03/12 06:38:50;;;;;;;16.80;8.53;;;;;5.50;100262.00;;;;9747638;30;20226;-81
2023/03/12 06:43:53;;;;;;;15.73;9.60;;;;;5.70;100264.00;;;;9747615;30;20359;-81
2023/03/12 06:48:54;;;;;;;18.07;10.13;;;;;5.90;100269.00;;;;9740050;30;20194;-79
2023/03/12 06:53:57;;;;;;;12.73;9.63;;;;;6.20;100265.00;;;;9748613;30;20626;-81
2023/03/12 06:58:59;;;;;;;17.03;10.53;;;;;6.30;100266.00;;;;9731907;30;20324;-81
2023/03/12 07:04:01;;;;;;;17.47;11.00;;;;;6.40;100276.00;;;;9745432;30;20206;-81
2023/03/12 07:09:03;;;;;;;15.40;10.47;;;;;6.60;100266.00;;;;9731570;30;20706;-81
2023/03/12 07:14:05;;;;;;;16.20;9.63;;;;;6.80;100276.00;;;;9718246;30;20261;-82
2023/03/12 07:19:08;;;;;;;16.77;10.30;;;;;7.00;100277.00;;;;9701017;30;20559;-82
2023/03/12 07:24:10;;;;;;;17.33;10.47;;;;;7.20;100280.00;;;;9745362;30;20396;-82
2023/03/12 07:29:12;;;;;;;16.83;10.37;;;;;7.40;100278.00;;;;9717148;30;20229;-82
2023/03/12 07:34:14;;;;;;;16.47;10.23;;;;;7.40;100295.00;;;;9744484;30;20687;-82
2023/03/12 07:39:16;;;;;;;19.03;10.70;;;;;7.40;100282.00;;;;9731299;30;20272;-81
2023/03/12 07:44:18;;;;;;;20.10;11.40;;;;;7.80;100299.00;;;;9749558;30;20225;-80
2023/03/12 07:49:21;;;;;;;24.00;12.20;;;;;8.00;100305.00;;;;9780939;30;20293;-81
2023/03/12 07:54:27;;;;;;;24.73;11.33;;;;;7.90;100302.00;;;;9768296;30;20337;-80
2023/03/12 07:59:29;;;;;;;29.90;12.50;;;;;8.00;100314.00;;;;9775825;30;20728;-81
2023/03/12 08:04:31;;;;;;;30.27;12.90;;;;;8.10;100330.00;;;;9730068;30;20234;-81
2023/03/12 08:09:33;;;;;;;32.23;13.47;;;;;8.10;100335.00;;;;9718577;30;20453;-82
2023/03/12 08:14:36;;;;;;;41.60;15.43;;;;;8.30;100335.00;;;;9754528;30;20304;-81
2023/03/12 08:19:38;;;;;;;42.13;15.00;;;;;8.50;100346.00;;;;9745579;30;20206;-81
2023/03/12 08:24:40;;;;;;;51.33;17.10;;;;;8.60;100344.00;;;;9722726;30;20291;-81
2023/03/12 08:29:42;;;;;;;39.17;17.43;;;;;9.00;100346.00;;;;9736735;30;20482;-80
2023/03/12 08:34:44;;;;;;;52.80;19.23;;;;;9.40;100364.00;;;;9701466;30;20226;-81
2023/03/12 08:39:46;;;;;;;62.40;18.27;;;;;9.60;100356.00;;;;9729811;30;20291;-81
2023/03/12 08:44:48;;;;;;;54.47;17.80;;;;;10.00;100366.00;;;;9735739;30;20218;-80
2023/03/12 08:49:50;;;;;;;60.97;17.10;;;;;10.70;100366.00;;;;9721575;30;20263;-82
2023/03/12 08:54:52;;;;;;;52.63;17.33;;;;;10.90;100373.00;;;;9735292;30;20304;-81
2023/03/12 08:59:54;;;;;;;58.70;14.10;;;;;11.10;100373.00;;;;9736530;30;20276;-82
2023/03/12 09:04:56;;;;;;;47.43;14.70;;;;;11.90;100349.00;;;;9735443;30;20253;-82
2023/03/12 09:09:58;;;;;;;45.30;14.10;;;;;12.90;100353.00;;;;9752179;30;20233;-78
2023/03/12 09:15:00;;;;;;;43.20;11.90;;;;;13.50;100351.00;;;;9746417;30;20222;-79
2023/03/12 09:20:12;;;;;;;40.47;11.30;;;;;13.30;100353.00;;;;9698893;30;20203;-78
2023/03/12 09:25:14;;;;;;;46.60;12.53;;;;;13.00;100361.00;;;;9696983;30;20213;-79
2023/03/12 09:30:19;;;;;;;44.73;11.13;;;;;12.70;100371.00;;;;9748024;30;20214;-81
2023/03/12 09:35:21;;;;;;;46.90;13.60;;;;;12.80;100378.00;;;;9705020;30;20765;-80
2023/03/12 09:40:28;;;;;;;43.77;10.53;;;;;13.90;100367.00;;;;9719089;30;20268;-81
2023/03/12 09:45:35;;;;;;;39.50;11.07;;;;;14.60;100375.00;;;;9755299;30;20241;-80
2023/03/12 09:50:42;;;;;;;38.03;10.60;;;;;15.00;100377.00;;;;9732191;30;20283;-80
2023/03/12 09:55:47;;;;;;;41.03;10.30;;;;;15.00;100375.00;;;;9731704;30;20297;-80
2023/03/12 10:01:06;;;;;;;40.38;9.65;;;;;15.00;100392.00;;;;9732531;30;20202;-79
2023/03/12 10:06:21;;;;;;;39.97;10.90;;;;;14.90;100393.00;;;;9732413;30;20289;-79
2023/03/12 10:11:53;;;;;;;35.85;10.18;;;;;15.20;100395.00;;;;9745836;30;20237;-79
2023/03/12 10:17:14;;;;;;;37.13;9.20;;;;;15.60;100409.00;;;;9718322;30;20222;-79
2023/03/12 10:22:46;;;;;;;36.63;8.30;;;;;15.00;100405.00;;;;9731497;30;20285;-79
2023/03/12 10:27:48;;;;;;;33.10;7.60;;;;;14.70;100388.00;;;;9710066;30;20203;-78
2023/03/12 10:32:55;;;;;;;31.15;7.78;;;;;14.50;100395.00;;;;9724479;30;20235;-78
2023/03/12 10:38:02;;;;;;;31.00;7.47;;;;;15.20;100385.00;;;;9717177;30;20218;-79
2023/03/12 10:43:05;;;;;;;34.10;7.32;;;;;15.30;100394.00;;;;9690599;30;20321;-78
2023/03/12 10:48:16;;;;;;;34.67;6.47;;;;;15.50;100401.00;;;;9716361;30;20210;-79
2023/03/12 10:53:25;;;;;;;32.25;6.50;;;;;15.80;100397.00;;;;9731372;30;20211;-78
2023/03/12 10:58:33;;;;;;;29.23;7.03;;;;;15.90;100412.00;;;;9716689;30;20683;-78
2023/03/12 11:03:36;;;;;;;35.10;7.40;;;;;15.70;100415.00;;;;9716578;30;20289;-79
2023/03/12 11:08:38;;;;;;;31.05;6.78;;;;;15.90;100420.00;;;;9730341;30;20604;-78
2023/03/12 11:13:41;;;;;;;29.38;7.28;;;;;15.50;100416.00;;;;9694613;30;20926;-78
2023/03/12 11:19:00;;;;;;;35.78;7.13;;;;;15.00;100424.00;;;;9731218;30;20578;-79
2023/03/12 11:24:13;;;;;;;32.90;6.60;;;;;14.90;100416.00;;;;9732216;30;20217;-78
2023/03/12 11:29:47;;;;;;;26.70;6.00;;;;;15.00;100419.00;;;;9730993;30;20210;-78
2023/03/12 11:34:50;;;;;;;34.67;7.38;;;;;15.20;100424.00;;;;9727638;30;20725;-81
2023/03/12 11:40:21;;;;;;;32.83;6.75;;;;;14.70;100413.00;;;;9745354;30;20203;-78
2023/03/12 11:45:32;;;;;;;26.08;7.13;;;;;14.50;100413.00;;;;9715758;30;20233;-77
2023/03/12 11:50:43;;;;;;;31.23;7.45;;;;;15.00;100421.00;;;;9735236;30;20213;-81
2023/03/12 11:56:03;;;;;;;33.80;7.72;;;;;14.20;100416.00;;;;9723553;30;20226;-81
2023/03/12 12:01:27;;;;;;;30.15;7.70;;;;;14.00;100414.00;;;;9737687;30;20257;-81
2023/03/12 12:07:17;;;;;;;33.17;8.57;;;;;14.80;100413.00;;;;9722884;30;20202;-81
2023/03/12 12:12:58;;;;;;;39.65;8.27;;;;;15.50;100400.00;;;;9707497;30;20704;-80
2023/03/12 12:18:03;;;;;;;33.45;8.55;;;;;15.50;100408.00;;;;9713675;30;20255;-80
2023/03/12 12:23:27;;;;;;;34.83;8.38;;;;;14.30;100402.00;;;;9736526;30;20202;-80
2023/03/12 12:28:48;;;;;;;40.60;7.63;;;;;14.30;100398.00;;;;9750787;30;20682;-80
2023/03/12 12:34:15;;;;;;;30.75;7.97;;;;;15.10;100380.00;;;;9750323;30;20945;-80
2023/03/12 12:39:34;;;;;;;35.47;6.88;;;;;16.30;100383.00;;;;9749823;30;20305;-81
2023/03/12 12:44:42;;;;;;;29.50;6.15;;;;;17.20;100373.00;;;;9750414;30;20654;-81
2023/03/12 12:49:56;;;;;;;23.65;6.00;;;;;17.00;100371.00;;;;9737330;30;20643;-80
2023/03/12 12:55:18;;;;;;;25.05;6.43;;;;;16.70;100365.00;;;;9736304;30;20317;-81
2023/03/12 13:00:54;;;;;;;21.75;4.85;;;;;16.40;100364.00;;;;9748260;30;20209;-80
2023/03/12 13:06:02;;;;;;;27.45;4.80;;;;;16.20;100368.00;;;;9735063;30;20202;-80
2023/03/12 13:11:13;;;;;;;27.40;6.60;;;;;15.80;100357.00;;;;9737769;30;20230;-79
2023/03/12 13:16:45;;;;;;;28.55;5.60;;;;;15.30;100354.00;;;;9732173;30;20249;-80
2023/03/12 13:22:03;;;;;;;28.58;5.88;;;;;15.60;100360.00;;;;9735419;30;20203;-79
2023/03/12 13:27:15;;;;;;;26.20;6.10;;;;;14.80;100359.00;;;;9763819;30;20217;-79
2023/03/12 13:32:35;;;;;;;28.13;6.60;;;;;15.00;100345.00;;;;9734713;30;20213;-80
2023/03/12 13:37:50;;;;;;;20.58;5.97;;;;;15.10;100357.00;;;;9734542;30;20218;-80
2023/03/12 13:43:14;;;;;;;25.48;6.60;;;;;15.30;100356.00;;;;9734478;30;20280;-80
2023/03/12 13:48:19;;;;;;;32.70;7.38;;;;;15.30;100345.00;;;;9734895;30;20735;-80
2023/03/12 13:53:25;;;;;;;19.58;4.70;;;;;15.30;100344.00;;;;9705364;30;20217;-80
2023/03/12 13:58:29;;;;;;;27.52;7.10;;;;;15.50;100368.00;;;;9719532;30;20253;-79
2023/03/12 14:03:35;;;;;;;29.20;6.97;;;;;14.90;100352.00;;;;9731771;30;20270;-80
2023/03/12 14:08:53;;;;;;;30.45;5.45;;;;;14.30;100357.00;;;;9732665;30;20793;-80
2023/03/12 14:14:43;;;;;;;29.08;6.38;;;;;13.90;100366.00;;;;9732218;30;20202;-80
2023/03/12 14:20:12;;;;;;;30.48;5.68;;;;;14.10;100370.00;;;;9728861;30;20210;-81
2023/03/12 14:25:17;;;;;;;27.77;5.77;;;;;14.10;100367.00;;;;9725411;30;20252;-81
2023/03/12 14:30:27;;;;;;;28.93;6.17;;;;;13.60;100368.00;;;;9716766;30;20207;-80
2023/03/12 14:35:39;;;;;;;26.93;6.17;;;;;13.90;100369.00;;;;9731789;30;20226;-80
2023/03/12 14:40:51;;;;;;;26.75;5.25;;;;;14.50;100357.00;;;;9731817;30;20221;-81
2023/03/12 14:45:59;;;;;;;21.50;5.50;;;;;14.60;100365.00;;;;9695339;30;20245;-81
2023/03/12 14:51:03;;;;;;;27.80;5.63;;;;;15.00;100368.00;;;;9724540;30;20207;-80
2023/03/12 14:56:12;;;;;;;24.98;4.70;;;;;15.40;100377.00;;;;9763080;30;20563;-80
2023/03/12 15:01:38;;;;;;;24.38;5.63;;;;;16.30;100378.00;;;;9717427;30;20198;-80
2023/03/12 15:06:44;;;;;;;27.45;5.90;;;;;15.90;100372.00;;;;9717041;30;20190;-80
2023/03/12 15:12:21;;;;;;;24.00;4.93;;;;;15.10;100382.00;;;;9731026;30;20587;-80
2023/03/12 15:17:27;;;;;;;19.23;4.07;;;;;14.10;100382.00;;;;9690330;30;20219;-79
2023/03/12 15:22:29;;;;;;;28.73;4.88;;;;;13.50;100380.00;;;;9746526;30;20822;-80
2023/03/12 15:27:33;;;;;;;20.15;4.22;;;;;13.30;100371.00;;;;9733684;30;20260;-80
2023/03/12 15:32:35;;;;;;;20.97;4.30;;;;;13.30;100368.00;;;;9737210;30;20281;-80
2023/03/12 15:37:39;;;;;;;26.23;4.17;;;;;13.30;100362.00;;;;9708243;30;20668;-79
2023/03/12 15:42:44;;;;;;;18.33;4.57;;;;;13.40;100366.00;;;;9735220;30;20288;-80
2023/03/12 15:47:48;;;;;;;28.23;5.03;;;;;13.30;100360.00;;;;9744474;30;20202;-80
2023/03/12 15:53:00;;;;;;;25.70;5.10;;;;;13.20;100362.00;;;;9715566;30;20210;-80
2023/03/12 15:58:22;;;;;;;31.07;5.87;;;;;13.10;100354.00;;;;9730221;30;20259;-80
2023/03/12 16:03:24;;;;;;;27.57;5.17;;;;;13.00;100353.00;;;;9715384;30;20342;-80
2023/03/12 16:08:35;;;;;;;25.63;5.00;;;;;13.00;100362.00;;;;9739884;30;20206;-79
2023/03/12 16:13:43;;;;;;;27.10;4.97;;;;;12.90;100344.00;;;;9730865;30;20620;-79
2023/03/12 16:18:45;;;;;;;33.40;5.50;;;;;12.70;100346.00;;;;9708072;30;20313;-79
2023/03/12 16:23:47;;;;;;;26.60;5.17;;;;;12.60;100350.00;;;;9741098;30;20199;-79
2023/03/12 16:28:49;;;;;;;25.93;5.77;;;;;12.50;100356.00;;;;9715625;30;20206;-79
2023/03/12 16:33:51;;;;;;;21.53;4.57;;;;;12.40;100356.00;;;;9730505;30;20693;-79
2023/03/12 16:38:53;;;;;;;20.97;4.53;;;;;12.30;100353.00;;;;9735328;30;20234;-80
2023/03/12 16:43:55;;;;;;;30.03;5.80;;;;;12.10;100367.00;;;;9749859;30;20229;-81
2023/03/12 16:48:58;;;;;;;25.23;5.40;;;;;12.10;100360.00;;;;9735299;30;20715;-80
2023/03/12 16:54:00;;;;;;;26.40;4.90;;;;;12.00;100362.00;;;;9748933;30;20202;-80
2023/03/12 16:59:25;;;;;;;23.13;5.63;;;;;12.00;100351.00;;;;9734411;30;20205;-78
2023/03/12 17:04:28;;;;;;;30.93;5.53;;;;;11.90;100363.00;;;;9748802;30;20193;-80
2023/03/12 17:09:30;;;;;;;24.00;5.20;;;;;11.70;100349.00;;;;9748384;30;20195;-79
2023/03/12 17:14:32;;;;;;;27.33;5.07;;;;;11.60;100353.00;;;;9721946;30;20216;-79
2023/03/12 17:19:34;;;;;;;24.67;6.23;;;;;11.40;100349.00;;;;9720082;30;20223;-79
2023/03/12 17:24:36;;;;;;;35.83;5.67;;;;;11.30;100342.00;;;;9763147;30;20214;-80
2023/03/12 17:29:37;;;;;;;25.53;5.10;;;;;11.10;100350.00;;;;9747942;30;20691;-79
2023/03/12 17:34:39;;;;;;;28.63;7.27;;;;;11.00;100353.00;;;;9749090;30;20690;-80
2023/03/12 17:39:41;;;;;;;30.67;6.37;;;;;10.90;100361.00;;;;9719942;30;20222;-79
2023/03/12 17:44:43;;;;;;;28.33;5.27;;;;;10.80;100363.00;;;;9733542;30;20241;-79
2023/03/12 17:49:45;;;;;;;24.20;5.10;;;;;10.80;100358.00;;;;9749388;30;20195;-79
2023/03/12 17:54:47;;;;;;;27.63;5.77;;;;;10.80;100360.00;;;;9735014;30;20202;-80
2023/03/12 17:59:50;;;;;;;30.57;6.20;;;;;10.80;100359.00;;;;9762533;30;20739;-80
2023/03/12 18:04:52;;;;;;;35.27;6.30;;;;;10.80;100346.00;;;;9732538;30;20210;-79
2023/03/12 18:09:54;;;;;;;34.37;6.20;;;;;10.90;100344.00;;;;9705933;30;20233;-79
2023/03/12 18:14:56;;;;;;;27.90;8.10;;;;;10.80;100342.00;;;;9761374;30;20276;-79
2023/03/12 18:19:58;;;;;;;28.53;5.97;;;;;10.70;100342.00;;;;9729982;30;20726;-78
2023/03/12 18:25:00;;;;;;;34.40;6.40;;;;;10.60;100326.00;;;;9762678;30;20265;-80
2023/03/12 18:30:03;;;;;;;33.50;7.77;;;;;10.50;100324.00;;;;9732819;30;20241;-80
2023/03/12 18:35:06;;;;;;;25.33;6.40;;;;;10.50;100330.00;;;;9747184;30;20706;-80
2023/03/12 18:40:09;;;;;;;24.67;6.33;;;;;10.40;100331.00;;;;9732794;30;20299;-79
2023/03/12 18:45:11;;;;;;;33.23;5.20;;;;;10.40;100316.00;;;;9756421;30;20280;-79
2023/03/12 18:50:13;;;;;;;28.90;6.07;;;;;10.40;100312.00;;;;9754738;30;20210;-79
2023/03/12 18:55:15;;;;;;;18.57;4.90;;;;;10.40;100313.00;;;;9729607;30;20238;-79
2023/03/12 19:00:18;;;;;;;25.23;6.17;;;;;10.40;100303.00;;;;9711696;30;20225;-79
2023/03/12 19:05:19;;;;;;;26.03;5.73;;;;;10.40;100282.00;;;;9743291;30;20664;-79
2023/03/12 19:10:21;;;;;;;22.13;5.43;;;;;10.50;100275.00;;;;9718612;30;20202;-80
2023/03/12 19:15:26;;;;;;;23.10;4.83;;;;;10.60;100274.00;;;;9747202;30;20214;-79
2023/03/12 19:20:29;;;;;;;18.27;4.77;;;;;10.60;100262.00;;;;9733664;30;20202;-79
2023/03/12 19:25:31;;;;;;;19.53;5.73;;;;;10.50;100254.00;;;;9733637;30;20201;-79
2023/03/12 19:30:33;;;;;;;14.47;4.47;;;;;10.60;100235.00;;;;9718418;30;20690;-78
2023/03/12 19:35:39;;;;;;;19.50;4.83;;;;;10.70;100229.00;;;;9732083;30;20227;-79
2023/03/12 19:40:47;;;;;;;21.40;4.60;;;;;10.70;100211.00;;;;9746952;30;20233;-79
2023/03/12 19:45:49;;;;;;;17.43;4.03;;;;;10.70;100209.00;;;;9690502;30;20256;-79
2023/03/12 19:50:53;;;;;;;20.50;3.90;;;;;10.60;100192.00;;;;9715758;30;20238;-79
2023/03/12 19:55:55;;;;;;;15.37;4.93;;;;;10.60;100187.00;;;;9696122;30;20255;-78
2023/03/12 20:00:58;;;;;;;22.80;4.40;;;;;10.60;100180.00;;;;9713961;30;20238;-78
2023/03/12 20:06:01;;;;;;;19.80;5.17;;;;;10.60;100174.00;;;;9724508;30;20561;-79
2023/03/12 20:11:05;;;;;;;18.57;3.53;;;;;10.80;100181.00;;;;9718428;30;20210;-79
2023/03/12 20:16:07;;;;;;;25.63;4.93;;;;;10.90;100186.00;;;;9770710;30;20211;-79
2023/03/12 20:21:09;;;;;;;18.30;4.57;;;;;10.90;100169.00;;;;9739518;30;20582;-78
2023/03/12 20:26:13;;;;;;;17.93;3.87;;;;;10.90;100172.00;;;;9725505;30;20191;-79
2023/03/12 20:31:16;;;;;;;18.53;4.40;;;;;11.00;100160.00;;;;9736553;30;20571;-79
2023/03/12 20:36:18;;;;;;;16.40;4.07;;;;;11.00;100154.00;;;;9725444;30;20222;-79
2023/03/12 20:41:20;;;;;;;23.50;4.60;;;;;11.00;100147.00;;;;9753639;30;20876;-79
2023/03/12 20:46:22;;;;;;;15.93;3.83;;;;;11.00;100154.00;;;;9746753;30;20268;-79
2023/03/12 20:51:25;;;;;;;16.40;3.67;;;;;11.00;100149.00;;;;9738512;30;20245;-79
2023/03/12 20:56:27;;;;;;;14.00;3.33;;;;;11.10;100126.00;;;;9711478;30;20666;-79
2023/03/12 21:01:29;;;;;;;17.47;3.87;;;;;11.10;100124.00;;;;9753793;30;20214;-79
2023/03/12 21:06:31;;;;;;;17.67;4.20;;;;;11.10;100111.00;;;;9727777;30;20254;-79
2023/03/12 21:11:33;;;;;;;18.37;3.80;;;;;11.10;100104.00;;;;9722668;30;20305;-78
2023/03/12 21:16:36;;;;;;;13.23;2.60;;;;;11.00;100102.00;;;;9752879;30;20293;-79
2023/03/12 21:21:38;;;;;;;16.17;3.33;;;;;11.10;100107.00;;;;9747439;30;20228;-78
2023/03/12 21:26:40;;;;;;;13.60;3.47;;;;;11.10;100074.00;;;;9738353;30;20202;-79
2023/03/12 21:31:42;;;;;;;16.93;3.33;;;;;11.10;100077.00;;;;9723711;30;20230;-79
2023/03/12 21:36:45;;;;;;;12.90;3.37;;;;;11.00;100078.00;;;;9723194;30;20257;-79
2023/03/12 21:41:47;;;;;;;17.47;3.03;;;;;11.10;100062.00;;;;9752810;30;20291;-79
2023/03/12 21:46:50;;;;;;;16.77;3.40;;;;;11.10;100045.00;;;;9701309;30;20305;-79
2023/03/12 21:51:52;;;;;;;11.17;3.33;;;;;11.10;100039.00;;;;9714673;30;20218;-79
2023/03/12 21:56:54;;;;;;;18.87;3.10;;;;;11.10;100026.00;;;;9734118;30;20222;-79
2023/03/12 22:01:57;;;;;;;10.43;2.70;;;;;11.10;100020.00;;;;9749639;30;20256;-79
2023/03/12 22:06:59;;;;;;;17.73;3.87;;;;;11.00;100002.00;;;;9752265;30;20690;-79
2023/03/12 22:12:07;;;;;;;16.50;3.97;;;;;11.00;99995.00;;;;9713098;30;20214;-79
2023/03/12 22:17:09;;;;;;;18.57;3.97;;;;;10.90;99994.00;;;;9734731;30;20215;-79
2023/03/12 22:22:11;;;;;;;10.57;3.23;;;;;10.70;99967.00;;;;9732899;30;20735;-78
2023/03/12 22:27:13;;;;;;;16.03;3.93;;;;;10.50;99968.00;;;;9725676;30;20250;-80
2023/03/12 22:32:15;;;;;;;17.00;3.67;;;;;10.40;99958.00;;;;9712023;30;20214;-79
2023/03/12 22:37:17;;;;;;;22.33;4.97;;;;;10.40;99955.00;;;;9719946;30;20513;-79
2023/03/12 22:42:19;;;;;;;21.77;4.70;;;;;10.30;99943.00;;;;9752240;30;20212;-78
2023/03/12 22:47:22;;;;;;;18.53;3.63;;;;;10.30;99928.00;;;;9755849;30;20671;-79
2023/03/12 22:52:24;;;;;;;13.77;3.37;;;;;10.20;99930.00;;;;9737463;30;20206;-79
2023/03/12 22:57:26;;;;;;;22.03;4.20;;;;;10.20;99918.00;;;;9723349;30;20222;-78
2023/03/12 23:02:28;;;;;;;19.27;3.30;;;;;10.10;99911.00;;;;9736051;30;20224;-79
2023/03/12 23:07:30;;;;;;;19.70;4.00;;;;;10.00;99895.00;;;;9751741;30;20207;-79
2023/03/12 23:12:35;;;;;;;24.20;4.83;;;;;10.10;99882.00;;;;9737406;30;20213;-79
2023/03/12 23:17:44;;;;;;;14.53;4.10;;;;;10.10;99873.00;;;;9751305;30;20309;-79
2023/03/12 23:22:45;;;;;;;13.47;3.27;;;;;10.10;99865.00;;;;9725999;30;20216;-78
2023/03/12 23:27:47;;;;;;;16.57;4.03;;;;;10.20;99846.00;;;;9736201;30;20222;-78
2023/03/12 23:32:49;;;;;;;19.00;3.87;;;;;10.20;99846.00;;;;9734680;30;20718;-78
2023/03/12 23:37:52;;;;;;;11.53;3.43;;;;;10.20;99829.00;;;;9766797;30;20219;-78
2023/03/12 23:42:54;;;;;;;12.27;2.83;;;;;10.20;99818.00;;;;9736699;30;20285;-78
2023/03/12 23:47:56;;;;;;;7.87;2.93;;;;;10.20;99800.00;;;;9743577;30;20233;-78
2023/03/12 23:52:58;;;;;;;15.40;3.43;;;;;10.20;99791.00;;;;9736718;30;20210;-79
2023/03/12 23:58:00;;;;;;;14.80;4.27;;;;;10.30;99780.00;;;;9720968;30;20221;-78
